sensor_id;sensor_type;location;lat;lon;timestamp;temperature;humidity
7942;HTU21D;4016;50.758;7.150;2022-08-04T00:01:39;21.75;97.71
7942;HTU21D;4016;50.758;7.150;2022-08-04T00:06:50;21.67;97.58
7942;HTU21D;4016;50.758;7.150;2022-08-04T00:11:56;21.66;98.27
7942;HTU21D;4016;50.758;7.150;2022-08-04T00:16:57;21.67;98.00
7942;HTU21D;4016;50.758;7.150;2022-08-04T00:22:01;21.59;98.61
7942;HTU21D;4016;50.758;7.150;2022-08-04T00:27:03;21.48;98.86
7942;HTU21D;4016;50.758;7.150;2022-08-04T00:32:05;21.43;99.38
7942;HTU21D;4016;50.758;7.150;2022-08-04T00:37:06;21.30;100.26
7942;HTU21D;4016;50.758;7.150;2022-08-04T00:48:14;21.04;101.64
7942;HTU21D;4016;50.758;7.150;2022-08-04T00:53:30;20.94;100.96
7942;HTU21D;4016;50.758;7.150;2022-08-04T00:58:46;20.88;102.74
7942;HTU21D;4016;50.758;7.150;2022-08-04T01:04:01;20.75;103.63
7942;HTU21D;4016;50.758;7.150;2022-08-04T01:15:04;20.61;103.73
7942;HTU21D;4016;50.758;7.150;2022-08-04T01:20:09;20.73;104.98
7942;HTU21D;4016;50.758;7.150;2022-08-04T01:30:13;20.55;103.95
7942;HTU21D;4016;50.758;7.150;2022-08-04T01:35:22;20.51;104.46
7942;HTU21D;4016;50.758;7.150;2022-08-04T01:40:25;20.39;104.57
7942;HTU21D;4016;50.758;7.150;2022-08-04T01:45:26;20.33;105.31
7942;HTU21D;4016;50.758;7.150;2022-08-04T01:50:33;20.22;105.97
7942;HTU21D;4016;50.758;7.150;2022-08-04T01:55:35;20.19;105.86
7942;HTU21D;4016;50.758;7.150;2022-08-04T02:00:39;20.21;106.55
7942;HTU21D;4016;50.758;7.150;2022-08-04T02:05:47;20.12;106.15
7942;HTU21D;4016;50.758;7.150;2022-08-04T02:11:03;19.98;107.17
7942;HTU21D;4016;50.758;7.150;2022-08-04T02:16:29;19.85;107.98
7942;HTU21D;4016;50.758;7.150;2022-08-04T02:21:31;19.87;107.88
7942;HTU21D;4016;50.758;7.150;2022-08-04T02:26:34;19.75;108.20
7942;HTU21D;4016;50.758;7.150;2022-08-04T02:31:48;19.65;108.62
7942;HTU21D;4016;50.758;7.150;2022-08-04T02:36:52;19.51;108.85
7942;HTU21D;4016;50.758;7.150;2022-08-04T02:41:54;19.45;109.19
7942;HTU21D;4016;50.758;7.150;2022-08-04T02:46:55;19.38;109.37
7942;HTU21D;4016;50.758;7.150;2022-08-04T02:51:56;19.39;109.73
7942;HTU21D;4016;50.758;7.150;2022-08-04T02:56:59;19.33;109.74
7942;HTU21D;4016;50.758;7.150;2022-08-04T03:01:59;19.30;109.78
7942;HTU21D;4016;50.758;7.150;2022-08-04T03:07:22;19.23;110.50
7942;HTU21D;4016;50.758;7.150;2022-08-04T03:29:39;18.93;111.91
7942;HTU21D;4016;50.758;7.150;2022-08-04T03:40:24;18.85;112.79
7942;HTU21D;4016;50.758;7.150;2022-08-04T03:51:34;18.68;112.68
7942;HTU21D;4016;50.758;7.150;2022-08-04T04:23:43;18.53;113.76
7942;HTU21D;4016;50.758;7.150;2022-08-04T04:34:20;18.59;114.65
7942;HTU21D;4016;50.758;7.150;2022-08-04T04:45:08;18.66;114.30
7942;HTU21D;4016;50.758;7.150;2022-08-04T04:55:27;18.77;114.48
7942;HTU21D;4016;50.758;7.150;2022-08-04T05:00:53;18.84;114.40
7942;HTU21D;4016;50.758;7.150;2022-08-04T05:06:20;18.89;113.95
7942;HTU21D;4016;50.758;7.150;2022-08-04T05:16:53;19.11;113.64
7942;HTU21D;4016;50.758;7.150;2022-08-04T05:22:01;19.24;113.56
7942;HTU21D;4016;50.758;7.150;2022-08-04T05:27:25;19.43;112.68
7942;HTU21D;4016;50.758;7.150;2022-08-04T05:32:32;19.60;111.86
7942;HTU21D;4016;50.758;7.150;2022-08-04T05:37:37;19.75;111.34
7942;HTU21D;4016;50.758;7.150;2022-08-04T05:42:40;19.95;110.74
7942;HTU21D;4016;50.758;7.150;2022-08-04T05:47:40;20.15;108.35
7942;HTU21D;4016;50.758;7.150;2022-08-04T05:52:42;20.41;106.05
7942;HTU21D;4016;50.758;7.150;2022-08-04T05:57:43;20.69;102.51
7942;HTU21D;4016;50.758;7.150;2022-08-04T06:02:46;21.01;99.66
7942;HTU21D;4016;50.758;7.150;2022-08-04T06:07:47;21.34;95.79
7942;HTU21D;4016;50.758;7.150;2022-08-04T06:12:57;21.61;94.81
7942;HTU21D;4016;50.758;7.150;2022-08-04T06:18:05;21.88;93.72
7942;HTU21D;4016;50.758;7.150;2022-08-04T06:23:09;22.23;89.35
7942;HTU21D;4016;50.758;7.150;2022-08-04T06:28:12;22.62;87.61
7942;HTU21D;4016;50.758;7.150;2022-08-04T06:33:13;22.96;86.63
7942;HTU21D;4016;50.758;7.150;2022-08-04T06:38:27;23.37;83.11
7942;HTU21D;4016;50.758;7.150;2022-08-04T06:43:28;23.79;81.13
7942;HTU21D;4016;50.758;7.150;2022-08-04T06:48:31;24.30;76.69
7942;HTU21D;4016;50.758;7.150;2022-08-04T06:53:31;24.76;75.68
7942;HTU21D;4016;50.758;7.150;2022-08-04T06:58:32;25.18;73.70
7942;HTU21D;4016;50.758;7.150;2022-08-04T07:03:33;25.72;68.47
7942;HTU21D;4016;50.758;7.150;2022-08-04T07:08:34;26.25;62.64
7942;HTU21D;4016;50.758;7.150;2022-08-04T07:13:35;26.97;58.83
7942;HTU21D;4016;50.758;7.150;2022-08-04T07:18:36;27.74;55.59
7942;HTU21D;4016;50.758;7.150;2022-08-04T07:23:36;28.46;52.27
7942;HTU21D;4016;50.758;7.150;2022-08-04T07:28:38;29.04;49.66
7942;HTU21D;4016;50.758;7.150;2022-08-04T07:33:40;29.61;47.98
7942;HTU21D;4016;50.758;7.150;2022-08-04T07:38:42;30.15;45.12
7942;HTU21D;4016;50.758;7.150;2022-08-04T07:43:42;30.54;43.58
7942;HTU21D;4016;50.758;7.150;2022-08-04T07:48:43;31.01;41.38
7942;HTU21D;4016;50.758;7.150;2022-08-04T07:53:45;31.57;39.10
7942;HTU21D;4016;50.758;7.150;2022-08-04T07:58:46;32.09;38.62
7942;HTU21D;4016;50.758;7.150;2022-08-04T08:03:47;32.28;37.61
7942;HTU21D;4016;50.758;7.150;2022-08-04T08:08:48;32.63;37.53
7942;HTU21D;4016;50.758;7.150;2022-08-04T08:13:48;32.83;35.43
7942;HTU21D;4016;50.758;7.150;2022-08-04T08:18:49;33.02;36.07
7942;HTU21D;4016;50.758;7.150;2022-08-04T08:23:49;33.63;35.48
7942;HTU21D;4016;50.758;7.150;2022-08-04T08:28:50;34.14;33.68
7942;HTU21D;4016;50.758;7.150;2022-08-04T08:33:52;34.49;32.48
7942;HTU21D;4016;50.758;7.150;2022-08-04T08:39:04;34.91;31.90
7942;HTU21D;4016;50.758;7.150;2022-08-04T09:00:55;35.67;28.93
7942;HTU21D;4016;50.758;7.150;2022-08-04T09:06:13;35.92;28.93
7942;HTU21D;4016;50.758;7.150;2022-08-04T09:11:25;0.00;28.52
7942;HTU21D;4016;50.758;7.150;2022-08-04T09:16:36;37.11;26.85
7942;HTU21D;4016;50.758;7.150;2022-08-04T09:21:43;37.65;26.30
7942;HTU21D;4016;50.758;7.150;2022-08-04T09:27:17;38.02;25.18
7942;HTU21D;4016;50.758;7.150;2022-08-04T09:32:29;38.52;24.63
7942;HTU21D;4016;50.758;7.150;2022-08-04T09:48:13;38.94;23.29
7942;HTU21D;4016;50.758;7.150;2022-08-04T09:53:20;39.20;21.10
7942;HTU21D;4016;50.758;7.150;2022-08-04T09:58:53;39.09;21.21
7942;HTU21D;4016;50.758;7.150;2022-08-04T10:04:01;38.89;22.27
7942;HTU21D;4016;50.758;7.150;2022-08-04T10:09:32;38.85;22.98
7942;HTU21D;4016;50.758;7.150;2022-08-04T10:14:49;38.82;22.99
7942;HTU21D;4016;50.758;7.150;2022-08-04T10:20:06;38.85;22.55
7942;HTU21D;4016;50.758;7.150;2022-08-04T10:25:21;38.65;22.71
7942;HTU21D;4016;50.758;7.150;2022-08-04T10:30:25;38.09;24.30
7942;HTU21D;4016;50.758;7.150;2022-08-04T10:35:32;38.16;23.46
7942;HTU21D;4016;50.758;7.150;2022-08-04T10:40:50;37.91;22.85
7942;HTU21D;4016;50.758;7.150;2022-08-04T10:56:39;37.23;24.02
7942;HTU21D;4016;50.758;7.150;2022-08-04T11:01:43;37.13;24.62
7942;HTU21D;4016;50.758;7.150;2022-08-04T11:06:46;37.08;23.21
7942;HTU21D;4016;50.758;7.150;2022-08-04T11:12:02;36.99;22.75
7942;HTU21D;4016;50.758;7.150;2022-08-04T11:17:19;36.68;22.25
7942;HTU21D;4016;50.758;7.150;2022-08-04T11:22:26;36.92;21.92
7942;HTU21D;4016;50.758;7.150;2022-08-04T11:27:42;37.55;20.23
7942;HTU21D;4016;50.758;7.150;2022-08-04T11:32:45;38.11;18.20
7942;HTU21D;4016;50.758;7.150;2022-08-04T11:37:53;38.83;17.53
7942;HTU21D;4016;50.758;7.150;2022-08-04T11:43:07;39.32;17.43
7942;HTU21D;4016;50.758;7.150;2022-08-04T11:48:16;39.84;16.35
7942;HTU21D;4016;50.758;7.150;2022-08-04T11:53:22;39.93;16.07
7942;HTU21D;4016;50.758;7.150;2022-08-04T11:58:23;39.35;16.99
7942;HTU21D;4016;50.758;7.150;2022-08-04T12:03:45;38.92;18.76
7942;HTU21D;4016;50.758;7.150;2022-08-04T12:09:02;38.12;20.17
7942;HTU21D;4016;50.758;7.150;2022-08-04T12:19:18;37.20;21.55
7942;HTU21D;4016;50.758;7.150;2022-08-04T12:24:25;37.08;24.17
7942;HTU21D;4016;50.758;7.150;2022-08-04T12:29:31;36.73;26.64
7942;HTU21D;4016;50.758;7.150;2022-08-04T12:34:37;36.08;27.76
7942;HTU21D;4016;50.758;7.150;2022-08-04T12:39:38;35.85;27.97
7942;HTU21D;4016;50.758;7.150;2022-08-04T12:44:41;35.85;27.84
7942;HTU21D;4016;50.758;7.150;2022-08-04T12:49:43;35.84;29.00
7942;HTU21D;4016;50.758;7.150;2022-08-04T12:54:53;35.78;29.32
7942;HTU21D;4016;50.758;7.150;2022-08-04T12:59:53;35.72;29.74
7942;HTU21D;4016;50.758;7.150;2022-08-04T13:04:57;35.34;29.89
7942;HTU21D;4016;50.758;7.150;2022-08-04T13:09:59;34.91;30.47
7942;HTU21D;4016;50.758;7.150;2022-08-04T13:15:09;34.47;30.39
7942;HTU21D;4016;50.758;7.150;2022-08-04T13:20:10;34.25;31.13
7942;HTU21D;4016;50.758;7.150;2022-08-04T13:25:11;34.07;31.59
7942;HTU21D;4016;50.758;7.150;2022-08-04T13:30:12;34.15;32.21
7942;HTU21D;4016;50.758;7.150;2022-08-04T13:35:13;34.44;31.86
7942;HTU21D;4016;50.758;7.150;2022-08-04T13:40:14;34.55;31.65
7942;HTU21D;4016;50.758;7.150;2022-08-04T13:45:19;34.61;31.06
7942;HTU21D;4016;50.758;7.150;2022-08-04T13:50:23;35.05;30.90
7942;HTU21D;4016;50.758;7.150;2022-08-04T13:55:32;35.14;30.00
7942;HTU21D;4016;50.758;7.150;2022-08-04T14:00:57;35.75;30.09
7942;HTU21D;4016;50.758;7.150;2022-08-04T14:06:17;35.88;29.22
7942;HTU21D;4016;50.758;7.150;2022-08-04T14:11:21;35.96;29.03
7942;HTU21D;4016;50.758;7.150;2022-08-04T14:16:21;35.72;29.50
7942;HTU21D;4016;50.758;7.150;2022-08-04T14:21:22;35.80;29.26
7942;HTU21D;4016;50.758;7.150;2022-08-04T14:26:31;35.92;28.37
7942;HTU21D;4016;50.758;7.150;2022-08-04T14:31:31;35.95;28.61
7942;HTU21D;4016;50.758;7.150;2022-08-04T14:36:41;36.26;28.23
7942;HTU21D;4016;50.758;7.150;2022-08-04T14:41:47;36.48;27.80
7942;HTU21D;4016;50.758;7.150;2022-08-04T14:46:52;36.84;26.72
7942;HTU21D;4016;50.758;7.150;2022-08-04T14:51:58;36.84;27.72
7942;HTU21D;4016;50.758;7.150;2022-08-04T14:57:04;36.46;26.68
7942;HTU21D;4016;50.758;7.150;2022-08-04T15:02:05;35.94;27.81
7942;HTU21D;4016;50.758;7.150;2022-08-04T15:07:07;35.74;28.51
7942;HTU21D;4016;50.758;7.150;2022-08-04T15:12:09;35.34;30.02
7942;HTU21D;4016;50.758;7.150;2022-08-04T15:17:10;35.31;29.85
7942;HTU21D;4016;50.758;7.150;2022-08-04T15:22:12;35.50;30.74
7942;HTU21D;4016;50.758;7.150;2022-08-04T15:27:13;35.75;29.71
7942;HTU21D;4016;50.758;7.150;2022-08-04T15:32:14;35.75;30.25
7942;HTU21D;4016;50.758;7.150;2022-08-04T15:37:27;35.77;30.42
7942;HTU21D;4016;50.758;7.150;2022-08-04T15:42:35;35.44;31.02
7942;HTU21D;4016;50.758;7.150;2022-08-04T15:47:38;34.80;32.92
7942;HTU21D;4016;50.758;7.150;2022-08-04T15:57:58;34.23;34.07
7942;HTU21D;4016;50.758;7.150;2022-08-04T16:02:59;33.73;35.20
7942;HTU21D;4016;50.758;7.150;2022-08-04T16:08:11;33.46;36.30
7942;HTU21D;4016;50.758;7.150;2022-08-04T16:13:16;33.12;36.72
7942;HTU21D;4016;50.758;7.150;2022-08-04T16:28:57;31.58;50.42
7942;HTU21D;4016;50.758;7.150;2022-08-04T16:33:59;30.48;58.87
7942;HTU21D;4016;50.758;7.150;2022-08-04T16:39:00;29.33;67.33
7942;HTU21D;4016;50.758;7.150;2022-08-04T16:44:37;28.12;81.11
7942;HTU21D;4016;50.758;7.150;2022-08-04T16:49:41;27.70;88.50
7942;HTU21D;4016;50.758;7.150;2022-08-04T16:54:42;27.44;91.08
7942;HTU21D;4016;50.758;7.150;2022-08-04T16:59:50;27.42;93.43
7942;HTU21D;4016;50.758;7.150;2022-08-04T17:04:50;27.38;95.07
7942;HTU21D;4016;50.758;7.150;2022-08-04T17:09:51;27.41;93.42
7942;HTU21D;4016;50.758;7.150;2022-08-04T17:14:51;27.44;91.53
7942;HTU21D;4016;50.758;7.150;2022-08-04T17:19:52;27.42;94.04
7942;HTU21D;4016;50.758;7.150;2022-08-04T17:24:52;27.38;94.72
7942;HTU21D;4016;50.758;7.150;2022-08-04T17:29:53;27.38;90.25
7942;HTU21D;4016;50.758;7.150;2022-08-04T17:34:57;27.38;93.35
7942;HTU21D;4016;50.758;7.150;2022-08-04T17:40:15;27.38;94.64
7942;HTU21D;4016;50.758;7.150;2022-08-04T17:45:16;27.79;94.38
7942;HTU21D;4016;50.758;7.150;2022-08-04T17:50:28;28.11;87.28
7942;HTU21D;4016;50.758;7.150;2022-08-04T18:00:38;28.13;87.93
7942;HTU21D;4016;50.758;7.150;2022-08-04T18:05:39;28.13;85.29
7942;HTU21D;4016;50.758;7.150;2022-08-04T18:10:41;28.10;82.53
7942;HTU21D;4016;50.758;7.150;2022-08-04T18:15:42;28.01;87.37
7942;HTU21D;4016;50.758;7.150;2022-08-04T18:20:43;27.90;88.22
7942;HTU21D;4016;50.758;7.150;2022-08-04T18:25:44;27.74;88.60
7942;HTU21D;4016;50.758;7.150;2022-08-04T18:30:45;27.61;90.60
7942;HTU21D;4016;50.758;7.150;2022-08-04T18:35:46;27.66;88.64
7942;HTU21D;4016;50.758;7.150;2022-08-04T18:40:46;27.51;92.01
7942;HTU21D;4016;50.758;7.150;2022-08-04T18:45:47;27.26;91.50
7942;HTU21D;4016;50.758;7.150;2022-08-04T18:50:47;27.17;94.41
7942;HTU21D;4016;50.758;7.150;2022-08-04T18:55:49;27.02;94.94
7942;HTU21D;4016;50.758;7.150;2022-08-04T19:00:49;26.84;97.09
7942;HTU21D;4016;50.758;7.150;2022-08-04T19:05:50;26.71;96.62
7942;HTU21D;4016;50.758;7.150;2022-08-04T19:10:50;26.63;97.53
7942;HTU21D;4016;50.758;7.150;2022-08-04T19:15:51;26.48;97.71
7942;HTU21D;4016;50.758;7.150;2022-08-04T19:20:52;26.34;98.16
7942;HTU21D;4016;50.758;7.150;2022-08-04T19:25:53;26.19;98.72
7942;HTU21D;4016;50.758;7.150;2022-08-04T19:30:54;26.07;98.23
7942;HTU21D;4016;50.758;7.150;2022-08-04T19:35:55;25.91;99.03
7942;HTU21D;4016;50.758;7.150;2022-08-04T19:40:55;25.80;100.10
7942;HTU21D;4016;50.758;7.150;2022-08-04T19:45:55;25.65;100.90
7942;HTU21D;4016;50.758;7.150;2022-08-04T19:50:56;25.54;101.40
7942;HTU21D;4016;50.758;7.150;2022-08-04T19:55:56;25.44;102.61
7942;HTU21D;4016;50.758;7.150;2022-08-04T20:00:57;25.42;103.66
7942;HTU21D;4016;50.758;7.150;2022-08-04T20:05:57;25.40;105.92
7942;HTU21D;4016;50.758;7.150;2022-08-04T20:10:57;25.28;107.05
7942;HTU21D;4016;50.758;7.150;2022-08-04T20:15:59;25.31;108.16
7942;HTU21D;4016;50.758;7.150;2022-08-04T20:20:59;25.15;105.39
7942;HTU21D;4016;50.758;7.150;2022-08-04T20:26:00;25.20;100.65
7942;HTU21D;4016;50.758;7.150;2022-08-04T20:31:00;25.05;97.53
7942;HTU21D;4016;50.758;7.150;2022-08-04T20:36:00;25.08;94.52
7942;HTU21D;4016;50.758;7.150;2022-08-04T20:41:01;25.00;93.01
7942;HTU21D;4016;50.758;7.150;2022-08-04T20:46:02;24.89;93.40
7942;HTU21D;4016;50.758;7.150;2022-08-04T20:51:02;24.72;94.81
7942;HTU21D;4016;50.758;7.150;2022-08-04T20:56:03;24.61;96.12
7942;HTU21D;4016;50.758;7.150;2022-08-04T21:01:03;24.46;97.06
7942;HTU21D;4016;50.758;7.150;2022-08-04T21:06:04;24.44;97.29
7942;HTU21D;4016;50.758;7.150;2022-08-04T21:11:04;24.35;97.12
7942;HTU21D;4016;50.758;7.150;2022-08-04T21:16:05;24.24;97.53
7942;HTU21D;4016;50.758;7.150;2022-08-04T21:21:05;24.19;96.29
7942;HTU21D;4016;50.758;7.150;2022-08-04T21:26:05;24.66;93.17
7942;HTU21D;4016;50.758;7.150;2022-08-04T21:31:06;24.29;94.93
7942;HTU21D;4016;50.758;7.150;2022-08-04T21:36:07;24.34;94.89
7942;HTU21D;4016;50.758;7.150;2022-08-04T21:41:07;24.21;95.84
7942;HTU21D;4016;50.758;7.150;2022-08-04T21:46:08;24.19;95.30
7942;HTU21D;4016;50.758;7.150;2022-08-04T21:56:12;24.18;94.72
7942;HTU21D;4016;50.758;7.150;2022-08-04T22:01:13;24.15;94.97
7942;HTU21D;4016;50.758;7.150;2022-08-04T22:06:14;24.34;94.27
7942;HTU21D;4016;50.758;7.150;2022-08-04T22:11:32;24.28;94.51
7942;HTU21D;4016;50.758;7.150;2022-08-04T22:16:34;24.14;95.36
7942;HTU21D;4016;50.758;7.150;2022-08-04T22:21:34;24.18;95.18
7942;HTU21D;4016;50.758;7.150;2022-08-04T22:26:35;23.95;96.71
7942;HTU21D;4016;50.758;7.150;2022-08-04T22:31:35;24.24;94.98
7942;HTU21D;4016;50.758;7.150;2022-08-04T22:36:36;23.97;96.42
7942;HTU21D;4016;50.758;7.150;2022-08-04T22:41:36;24.08;95.95
7942;HTU21D;4016;50.758;7.150;2022-08-04T22:46:36;23.97;96.64
7942;HTU21D;4016;50.758;7.150;2022-08-04T22:51:37;24.30;94.03
7942;HTU21D;4016;50.758;7.150;2022-08-04T22:56:37;24.03;95.80
7942;HTU21D;4016;50.758;7.150;2022-08-04T23:01:38;23.91;95.99
7942;HTU21D;4016;50.758;7.150;2022-08-04T23:06:38;23.83;97.07
7942;HTU21D;4016;50.758;7.150;2022-08-04T23:11:39;23.88;98.40
7942;HTU21D;4016;50.758;7.150;2022-08-04T23:16:40;23.67;101.33
7942;HTU21D;4016;50.758;7.150;2022-08-04T23:21:40;23.59;102.56
7942;HTU21D;4016;50.758;7.150;2022-08-04T23:26:40;23.59;102.80
7942;HTU21D;4016;50.758;7.150;2022-08-04T23:31:41;23.39;104.84
7942;HTU21D;4016;50.758;7.150;2022-08-04T23:36:41;23.29;105.53
7942;HTU21D;4016;50.758;7.150;2022-08-04T23:41:42;23.23;107.18
7942;HTU21D;4016;50.758;7.150;2022-08-04T23:46:42;23.13;108.33
7942;HTU21D;4016;50.758;7.150;2022-08-04T23:51:43;23.02;108.90
7942;HTU21D;4016;50.758;7.150;2022-08-04T23:56:43;22.99;109.57
